Time;durP1;ratioP1;P1;durP2;ratioP2;P2;SDS_P1;SDS_P2;PMS_P1;PMS_P2;Temp;Humidity;BMP_temperature;BMP_pressure;BME280_temperature;BME280_humidity;BME280_pressure;Samples;Min_cycle;Max_cycle;Signal;HPM_P1;HPM_P2
2022/08/07 00:00:35;;;;;;;;;;;;;;;;;;5062579;28;1483;-63
2022/08/07 00:03:00;;;;;;;;;;;;;;;;;;5063284;28;1266;-63
2022/08/07 00:05:25;;;;;;;;;;;;;;;;;;5063229;28;1208;-63
2022/08/07 00:07:51;;;;;;;;;;;;;;;;;;5046965;28;1467;-63
2022/08/07 00:10:16;;;;;;;;;;;;;;;;;;5062137;28;1224;-63
2022/08/07 00:12:42;;;;;;;;;;;;;;;;;;5062197;28;1894;-65
2022/08/07 00:15:08;;;;;;;;;;;;;;;;;;5061839;28;1483;-65
2022/08/07 00:17:34;;;;;;;;;;;;;;;;;;5054033;28;1423;-65
2022/08/07 00:19:59;;;;;;;;;;;;;;;;;;5063085;28;1205;-64
2022/08/07 00:22:24;;;;;;;;;;;;;;;;;;5063007;28;985;-64
2022/08/07 00:24:49;;;;;;;;;;;;;;;;;;5062053;28;1428;-65
2022/08/07 00:27:14;;;;;;;;;;;;;;;;;;5062472;28;1213;-65
2022/08/07 00:29:40;;;;;;;;;;;;;;;;;;5063004;28;1467;-65
2022/08/07 00:32:05;;;;;;;;;;;;;;;;;;5053909;28;1668;-65
2022/08/07 00:34:30;;;;;;;;;;;;;;;;;;5061357;28;1997;-65
2022/08/07 00:36:56;;;;;;;;;;;;;;;;;;5062960;28;1092;-64
2022/08/07 00:39:21;;;;;;;;;;;;;;;;;;5062010;28;1507;-65
2022/08/07 00:41:47;;;;;;;;;;;;;;;;;;5062210;28;1438;-64
2022/08/07 00:44:12;;;;;;;;;;;;;;;;;;5063030;28;1259;-65
2022/08/07 00:46:37;;;;;;;;;;;;;;;;;;5055620;28;1547;-65
2022/08/07 00:49:02;;;;;;;;;;;;;;;;;;5060073;28;1229;-64
2022/08/07 00:51:28;;;;;;;;;;;;;;;;;;5062549;28;1423;-64
2022/08/07 00:53:53;;;;;;;;;;;;;;;;;;5062654;28;1894;-65
2022/08/07 00:56:19;;;;;;;;;;;;;;;;;;5060471;28;1531;-65
2022/08/07 00:58:44;;;;;;;;;;;;;;;;;;5062614;28;1223;-65
2022/08/07 01:01:09;;;;;;;;;;;;;;;;;;5060124;28;1553;-65
2022/08/07 01:03:35;;;;;;;;;;;;;;;;;;5055920;28;1120;-65
2022/08/07 01:06:01;;;;;;;;;;;;;;;;;;5061298;28;1629;-65
2022/08/07 01:08:27;;;;;;;;;;;;;;;;;;5061946;28;1366;-65
2022/08/07 01:10:52;;;;;;;;;;;;;;;;;;5058578;28;1591;-65
2022/08/07 01:13:18;;;;;;;;;;;;;;;;;;5061002;28;1961;-64
2022/08/07 01:15:44;;;;;;;;;;;;;;;;;;5059020;28;1624;-64
2022/08/07 01:18:10;;;;;;;;;;;;;;;;;;5061353;28;1180;-64
2022/08/07 01:20:37;;;;;;;;;;;;;;;;;;5062031;28;924;-64
2022/08/07 01:23:03;;;;;;;;;;;;;;;;;;5061528;28;1471;-64
2022/08/07 01:25:28;;;;;;;;;;;;;;;;;;5060240;28;1622;-65
2022/08/07 01:27:54;;;;;;;;;;;;;;;;;;5061347;28;1646;-65
2022/08/07 01:30:19;;;;;;;;;;;;;;;;;;5061101;28;1400;-64
2022/08/07 01:32:44;;;;;;;;;;;;;;;;;;5060944;28;1960;-65
2022/08/07 01:35:10;;;;;;;;;;;;;;;;;;5061339;28;1258;-65
2022/08/07 01:37:35;;;;;;;;;;;;;;;;;;5059518;28;1586;-65
2022/08/07 01:40:03;;;;;;;;;;;;;;;;;;5062060;28;1445;-65
2022/08/07 01:42:28;;;;;;;;;;;;;;;;;;5048070;28;1648;-65
2022/08/07 01:44:54;;;;;;;;;;;;;;;;;;5053431;28;1281;-65
2022/08/07 01:47:19;;;;;;;;;;;;;;;;;;5060368;28;1328;-65
2022/08/07 01:49:44;;;;;;;;;;;;;;;;;;5061938;28;1120;-64
2022/08/07 01:52:11;;;;;;;;;;;;;;;;;;5061854;28;862;-64
2022/08/07 01:54:38;;;;;;;;;;;;;;;;;;5047635;28;1897;-65
2022/08/07 01:57:05;;;;;;;;;;;;;;;;;;5059607;28;1479;-65
2022/08/07 01:59:40;;;;;;;;;;;;;;;;;;5061656;28;1570;-65
2022/08/07 02:02:07;;;;;;;;;;;;;;;;;;5060156;28;1238;-65
2022/08/07 02:04:51;;;;;;;;;;;;;;;;;;5061082;28;1443;-65
2022/08/07 02:07:19;;;;;;;;;;;;;;;;;;5061404;28;858;-65
2022/08/07 02:09:45;;;;;;;;;;;;;;;;;;5055692;28;1606;-65
2022/08/07 02:12:18;;;;;;;;;;;;;;;;;;5060076;28;1304;-64
2022/08/07 02:14:45;;;;;;;;;;;;;;;;;;5061217;28;1890;-64
2022/08/07 02:17:11;;;;;;;;;;;;;;;;;;5057086;28;1585;-64
2022/08/07 02:19:38;;;;;;;;;;;;;;;;;;5060251;28;1536;-65
2022/08/07 02:22:03;;;;;;;;;;;;;;;;;;5061368;28;1251;-65
2022/08/07 02:24:29;;;;;;;;;;;;;;;;;;5055658;28;1543;-65
2022/08/07 02:26:54;;;;;;;;;;;;;;;;;;5056901;28;1528;-65
2022/08/07 02:29:20;;;;;;;;;;;;;;;;;;5061303;28;1137;-65
2022/08/07 02:31:45;;;;;;;;;;;;;;;;;;5059244;28;1578;-65
2022/08/07 02:34:11;;;;;;;;;;;;;;;;;;5061144;28;1967;-65
2022/08/07 02:36:37;;;;;;;;;;;;;;;;;;5060550;28;1491;-65
2022/08/07 02:39:03;;;;;;;;;;;;;;;;;;5058702;28;1476;-65
2022/08/07 02:41:28;;;;;;;;;;;;;;;;;;5058220;28;1359;-65
2022/08/07 02:43:55;;;;;;;;;;;;;;;;;;5060812;28;1153;-65
2022/08/07 02:46:23;;;;;;;;;;;;;;;;;;5057058;28;1447;-64
2022/08/07 02:48:48;;;;;;;;;;;;;;;;;;5055874;28;1155;-64
2022/08/07 02:51:15;;;;;;;;;;;;;;;;;;5061162;28;845;-64
2022/08/07 02:53:43;;;;;;;;;;;;;;;;;;5060031;28;1902;-64
2022/08/07 02:56:11;;;;;;;;;;;;;;;;;;5051042;28;1439;-65
2022/08/07 02:58:38;;;;;;;;;;;;;;;;;;5061241;28;854;-64
2022/08/07 03:01:03;;;;;;;;;;;;;;;;;;5040030;28;1647;-65
2022/08/07 03:03:30;;;;;;;;;;;;;;;;;;5060937;28;1080;-64
2022/08/07 03:05:56;;;;;;;;;;;;;;;;;;5060721;28;1203;-65
2022/08/07 03:08:21;;;;;;;;;;;;;;;;;;5061183;28;925;-65
2022/08/07 03:10:46;;;;;;;;;;;;;;;;;;5061187;28;1664;-64
2022/08/07 03:13:15;;;;;;;;;;;;;;;;;;5052879;28;1898;-65
2022/08/07 03:15:41;;;;;;;;;;;;;;;;;;5060686;28;1565;-64
2022/08/07 03:18:07;;;;;;;;;;;;;;;;;;5060601;28;1062;-64
2022/08/07 03:20:32;;;;;;;;;;;;;;;;;;5063946;28;1506;-64
2022/08/07 03:22:58;;;;;;;;;;;;;;;;;;5063859;28;1404;-65
2022/08/07 03:25:24;;;;;;;;;;;;;;;;;;5043338;28;1615;-64
2022/08/07 03:27:49;;;;;;;;;;;;;;;;;;5063707;28;1484;-64
2022/08/07 03:30:15;;;;;;;;;;;;;;;;;;5063341;28;1582;-64
2022/08/07 03:32:41;;;;;;;;;;;;;;;;;;5063680;28;1898;-64
2022/08/07 03:35:10;;;;;;;;;;;;;;;;;;5063804;28;1258;-64
2022/08/07 03:37:35;;;;;;;;;;;;;;;;;;5063527;28;1424;-64
2022/08/07 03:40:02;;;;;;;;;;;;;;;;;;5061863;28;1554;-64
2022/08/07 03:42:27;;;;;;;;;;;;;;;;;;5061086;28;1507;-64
2022/08/07 03:44:52;;;;;;;;;;;;;;;;;;5063292;28;1293;-64
2022/08/07 03:47:18;;;;;;;;;;;;;;;;;;5054435;28;1561;-64
2022/08/07 03:49:44;;;;;;;;;;;;;;;;;;5063467;28;1261;-64
2022/08/07 03:52:10;;;;;;;;;;;;;;;;;;5063756;28;830;-66
2022/08/07 03:54:36;;;;;;;;;;;;;;;;;;5062496;28;1918;-66
2022/08/07 03:57:01;;;;;;;;;;;;;;;;;;5059574;28;1245;-65
2022/08/07 03:59:27;;;;;;;;;;;;;;;;;;5063989;28;918;-66
2022/08/07 04:01:53;;;;;;;;;;;;;;;;;;5054964;28;1531;-65
2022/08/07 04:04:18;;;;;;;;;;;;;;;;;;5058839;28;1392;-65
2022/08/07 04:06:44;;;;;;;;;;;;;;;;;;5057485;28;1295;-65
2022/08/07 04:09:10;;;;;;;;;;;;;;;;;;5062275;28;1559;-65
2022/08/07 04:11:36;;;;;;;;;;;;;;;;;;5062160;28;1563;-66
2022/08/07 04:14:01;;;;;;;;;;;;;;;;;;5063114;28;1884;-65
2022/08/07 04:16:27;;;;;;;;;;;;;;;;;;5060910;28;1558;-65
2022/08/07 04:18:52;;;;;;;;;;;;;;;;;;5063294;28;1242;-65
2022/08/07 04:21:18;;;;;;;;;;;;;;;;;;5062276;28;1011;-65
2022/08/07 04:23:43;;;;;;;;;;;;;;;;;;5062671;28;1550;-65
2022/08/07 04:26:08;;;;;;;;;;;;;;;;;;5057994;28;1383;-65
2022/08/07 04:28:33;;;;;;;;;;;;;;;;;;5063193;28;1000;-65
2022/08/07 04:30:59;;;;;;;;;;;;;;;;;;5043614;28;1472;-65
2022/08/07 04:33:24;;;;;;;;;;;;;;;;;;5058924;28;1902;-65
2022/08/07 04:35:49;;;;;;;;;;;;;;;;;;5060776;28;1431;-64
2022/08/07 04:38:15;;;;;;;;;;;;;;;;;;5047259;28;1191;-65
2022/08/07 04:40:41;;;;;;;;;;;;;;;;;;5060587;28;1453;-65
2022/08/07 04:43:07;;;;;;;;;;;;;;;;;;5058022;28;1542;-64
2022/08/07 04:45:46;;;;;;;;;;;;;;;;;;5061904;28;1247;-64
2022/08/07 04:48:15;;;;;;;;;;;;;;;;;;5062980;28;963;-65
2022/08/07 04:50:44;;;;;;;;;;;;;;;;;;5062552;28;1114;-64
2022/08/07 04:53:23;;;;;;;;;;;;;;;;;;5062629;28;1905;-65
2022/08/07 04:55:54;;;;;;;;;;;;;;;;;;5062079;28;1507;-64
2022/08/07 04:58:42;;;;;;;;;;;;;;;;;;5062757;28;1164;-65
2022/08/07 05:01:19;;;;;;;;;;;;;;;;;;5061828;28;822;-64
2022/08/07 05:04:10;;;;;;;;;;;;;;;;;;5062514;28;954;-64
2022/08/07 05:06:54;;;;;;;;;;;;;;;;;;5059781;28;1149;-64
2022/08/07 05:09:31;;;;;;;;;;;;;;;;;;5062553;28;945;-65
2022/08/07 05:11:59;;;;;;;;;;;;;;;;;;5062054;28;1456;-65
2022/08/07 05:14:30;;;;;;;;;;;;;;;;;;5060134;28;1898;-65
2022/08/07 05:16:57;;;;;;;;;;;;;;;;;;5060676;28;1219;-65
2022/08/07 05:19:24;;;;;;;;;;;;;;;;;;5060448;28;980;-65
2022/08/07 05:21:52;;;;;;;;;;;;;;;;;;5061811;28;826;-65
2022/08/07 05:24:18;;;;;;;;;;;;;;;;;;5061916;28;1278;-65
2022/08/07 05:26:45;;;;;;;;;;;;;;;;;;5056163;28;1519;-64
2022/08/07 05:29:12;;;;;;;;;;;;;;;;;;5061720;28;1260;-64
2022/08/07 05:31:39;;;;;;;;;;;;;;;;;;5061269;28;1471;-65
2022/08/07 05:34:05;;;;;;;;;;;;;;;;;;5061147;28;1899;-65
2022/08/07 05:36:32;;;;;;;;;;;;;;;;;;5061284;28;1316;-65
2022/08/07 05:38:57;;;;;;;;;;;;;;;;;;5061857;28;881;-65
2022/08/07 05:41:23;;;;;;;;;;;;;;;;;;5061571;28;1479;-65
2022/08/07 05:43:49;;;;;;;;;;;;;;;;;;5061702;28;807;-65
2022/08/07 05:46:18;;;;;;;;;;;;;;;;;;5058023;28;1457;-65
2022/08/07 05:48:44;;;;;;;;;;;;;;;;;;5054312;28;1074;-65
2022/08/07 05:51:09;;;;;;;;;;;;;;;;;;5061510;28;1164;-64
2022/08/07 05:53:35;;;;;;;;;;;;;;;;;;5057838;28;1979;-65
2022/08/07 05:56:01;;;;;;;;;;;;;;;;;;5060434;28;1275;-65
2022/08/07 05:58:27;;;;;;;;;;;;;;;;;;5061144;28;1266;-65
2022/08/07 06:00:52;;;;;;;;;;;;;;;;;;5061011;28;1310;-65
2022/08/07 06:03:18;;;;;;;;;;;;;;;;;;5044003;28;1570;-64
2022/08/07 06:05:45;;;;;;;;;;;;;;;;;;5059598;28;1490;-65
2022/08/07 06:08:10;;;;;;;;;;;;;;;;;;5061307;28;1334;-65
2022/08/07 06:10:36;;;;;;;;;;;;;;;;;;5059332;28;1327;-65
2022/08/07 06:13:01;;;;;;;;;;;;;;;;;;5059031;28;1943;-64
2022/08/07 06:15:28;;;;;;;;;;;;;;;;;;5042697;28;1325;-65
2022/08/07 06:17:53;;;;;;;;;;;;;;;;;;5059811;28;1388;-65
2022/08/07 06:20:19;;;;;;;;;;;;;;;;;;5061042;28;1330;-65
2022/08/07 06:22:45;;;;;;;;;;;;;;;;;;5060638;28;1231;-65
2022/08/07 06:25:12;;;;;;;;;;;;;;;;;;5058933;28;1350;-65
2022/08/07 06:27:37;;;;;;;;;;;;;;;;;;5059019;28;1314;-65
2022/08/07 06:30:02;;;;;;;;;;;;;;;;;;5060654;28;1272;-65
2022/08/07 06:32:28;;;;;;;;;;;;;;;;;;5060840;28;1219;-64
2022/08/07 06:34:53;;;;;;;;;;;;;;;;;;5059203;28;1961;-65
2022/08/07 06:37:18;;;;;;;;;;;;;;;;;;5060127;28;810;-65
2022/08/07 06:39:43;;;;;;;;;;;;;;;;;;5060439;28;870;-65
2022/08/07 06:42:22;;;;;;;;;;;;;;;;;;5060193;28;1392;-65
2022/08/07 06:44:48;;;;;;;;;;;;;;;;;;5044801;28;1465;-65
2022/08/07 06:47:14;;;;;;;;;;;;;;;;;;5054241;28;1526;-65
2022/08/07 06:49:39;;;;;;;;;;;;;;;;;;5060858;28;1419;-65
2022/08/07 06:52:06;;;;;;;;;;;;;;;;;;5060915;28;1073;-65
2022/08/07 06:54:32;;;;;;;;;;;;;;;;;;5060369;28;1901;-65
2022/08/07 06:56:57;;;;;;;;;;;;;;;;;;5060233;28;1456;-65
2022/08/07 06:59:24;;;;;;;;;;;;;;;;;;5061101;28;1235;-65
2022/08/07 07:01:51;;;;;;;;;;;;;;;;;;5059889;28;1055;-65
2022/08/07 07:04:16;;;;;;;;;;;;;;;;;;5058254;28;1448;-65
2022/08/07 07:06:43;;;;;;;;;;;;;;;;;;5058686;28;1673;-65
2022/08/07 07:09:21;;;;;;;;;;;;;;;;;;5058496;28;1370;-65
2022/08/07 07:12:04;;;;;;;;;;;;;;;;;;5054731;28;1295;-65
2022/08/07 07:14:53;;;;;;;;;;;;;;;;;;5053465;28;1898;-65
2022/08/07 07:17:24;;;;;;;;;;;;;;;;;;5027213;28;1328;-65
2022/08/07 07:19:52;;;;;;;;;;;;;;;;;;5059119;28;1081;-65
2022/08/07 07:22:18;;;;;;;;;;;;;;;;;;5059623;28;1569;-64
2022/08/07 07:24:45;;;;;;;;;;;;;;;;;;5059375;28;1443;-65
2022/08/07 07:27:12;;;;;;;;;;;;;;;;;;5060029;28;1471;-65
2022/08/07 07:29:39;;;;;;;;;;;;;;;;;;5042295;28;807;-65
2022/08/07 07:32:06;;;;;;;;;;;;;;;;;;5059451;28;1479;-65
2022/08/07 07:34:32;;;;;;;;;;;;;;;;;;5059291;28;1902;-65
2022/08/07 07:36:59;;;;;;;;;;;;;;;;;;5060036;28;1514;-65
2022/08/07 07:39:25;;;;;;;;;;;;;;;;;;5056092;28;1500;-65
2022/08/07 07:41:50;;;;;;;;;;;;;;;;;;5059369;28;1448;-65
2022/08/07 07:44:17;;;;;;;;;;;;;;;;;;5060261;28;1452;-65
2022/08/07 07:46:42;;;;;;;;;;;;;;;;;;5059719;28;1526;-65
2022/08/07 07:49:08;;;;;;;;;;;;;;;;;;5060158;28;1048;-65
2022/08/07 07:51:34;;;;;;;;;;;;;;;;;;5041664;28;1598;-65
2022/08/07 07:54:00;;;;;;;;;;;;;;;;;;5055674;28;1972;-65
2022/08/07 07:56:26;;;;;;;;;;;;;;;;;;5057891;28;1492;-65
2022/08/07 07:58:52;;;;;;;;;;;;;;;;;;5063110;28;1399;-65
2022/08/07 08:01:19;;;;;;;;;;;;;;;;;;5063338;28;1496;-65
2022/08/07 08:03:44;;;;;;;;;;;;;;;;;;5063253;28;1537;-65
2022/08/07 08:06:11;;;;;;;;;;;;;;;;;;5062957;28;1346;-64
2022/08/07 08:08:36;;;;;;;;;;;;;;;;;;5062929;28;996;-65
2022/08/07 08:11:02;;;;;;;;;;;;;;;;;;5062720;28;1408;-65
2022/08/07 08:13:28;;;;;;;;;;;;;;;;;;5063240;28;1968;-64
2022/08/07 08:15:53;;;;;;;;;;;;;;;;;;5062839;28;1207;-65
2022/08/07 08:18:20;;;;;;;;;;;;;;;;;;5062856;28;1487;-65
2022/08/07 08:20:46;;;;;;;;;;;;;;;;;;5063491;28;1035;-65
2022/08/07 08:28:43;;;;;;;;;;;;;;;;;;5048169;28;1376;-65
2022/08/07 08:31:09;;;;;;;;;;;;;;;;;;5063087;28;1528;-65
2022/08/07 08:33:35;;;;;;;;;;;;;;;;;;5062994;28;1902;-65
2022/08/07 08:36:01;;;;;;;;;;;;;;;;;;5044797;28;1294;-65
2022/08/07 08:38:34;;;;;;;;;;;;;;;;;;5063022;28;852;-64
2022/08/07 08:41:06;;;;;;;;;;;;;;;;;;5061607;28;1543;-65
2022/08/07 08:43:37;;;;;;;;;;;;;;;;;;5062089;28;1495;-62
2022/08/07 08:46:03;;;;;;;;;;;;;;;;;;5061792;28;1447;-65
2022/08/07 08:48:46;;;;;;;;;;;;;;;;;;5062606;28;1435;-65
2022/08/07 08:51:17;;;;;;;;;;;;;;;;;;5062250;28;1294;-65
2022/08/07 08:54:01;;;;;;;;;;;;;;;;;;5062822;28;1910;-65
2022/08/07 08:56:29;;;;;;;;;;;;;;;;;;5061779;28;1460;-65
2022/08/07 08:59:13;;;;;;;;;;;;;;;;;;5062447;28;1258;-65
2022/08/07 09:01:45;;;;;;;;;;;;;;;;;;5042842;28;985;-64
2022/08/07 09:04:33;;;;;;;;;;;;;;;;;;5054681;28;1516;-65
2022/08/07 09:07:10;;;;;;;;;;;;;;;;;;5027408;28;1949;-64
2022/08/07 09:09:35;;;;;;;;;;;;;;;;;;5053972;28;1456;-64
2022/08/07 09:12:10;;;;;;;;;;;;;;;;;;5055261;28;1448;-62
2022/08/07 09:14:43;;;;;;;;;;;;;;;;;;5054639;28;1910;-62
2022/08/07 09:17:27;;;;;;;;;;;;;;;;;;5041943;28;1697;-62
2022/08/07 09:19:58;;;;;;;;;;;;;;;;;;5060785;28;1538;-62
2022/08/07 09:22:39;;;;;;;;;;;;;;;;;;5062418;28;810;-62
2022/08/07 09:25:21;;;;;;;;;;;;;;;;;;5061541;28;1455;-63
2022/08/07 09:27:54;;;;;;;;;;;;;;;;;;5059999;28;1472;-62
2022/08/07 09:30:21;;;;;;;;;;;;;;;;;;5062089;28;1055;-63
2022/08/07 09:33:02;;;;;;;;;;;;;;;;;;5062167;28;716;-63
2022/08/07 09:35:27;;;;;;;;;;;;;;;;;;5053793;28;1476;-63
2022/08/07 09:37:56;;;;;;;;;;;;;;;;;;5061335;28;1354;-66
2022/08/07 09:40:37;;;;;;;;;;;;;;;;;;5061487;28;1564;-63
2022/08/07 09:43:24;;;;;;;;;;;;;;;;;;5055141;28;1349;-63
2022/08/07 09:45:57;;;;;;;;;;;;;;;;;;5060673;28;1511;-66
2022/08/07 09:48:40;;;;;;;;;;;;;;;;;;5056177;28;1270;-66
2022/08/07 09:51:11;;;;;;;;;;;;;;;;;;5061805;28;1163;-66
2022/08/07 09:53:39;;;;;;;;;;;;;;;;;;5061980;28;1894;-66
2022/08/07 09:56:12;;;;;;;;;;;;;;;;;;5061480;28;1199;-66
2022/08/07 09:58:37;;;;;;;;;;;;;;;;;;5060644;28;1316;-66
2022/08/07 10:01:29;;;;;;;;;;;;;;;;;;5059688;28;1255;-66
2022/08/07 10:04:13;;;;;;;;;;;;;;;;;;5053260;28;1332;-66
2022/08/07 10:06:57;;;;;;;;;;;;;;;;;;5051709;28;1076;-65
2022/08/07 10:09:34;;;;;;;;;;;;;;;;;;5049770;28;1249;-65
2022/08/07 10:12:08;;;;;;;;;;;;;;;;;;5050413;28;1321;-65
2022/08/07 10:14:40;;;;;;;;;;;;;;;;;;5053923;28;1957;-65
2022/08/07 10:17:11;;;;;;;;;;;;;;;;;;5052189;28;1773;-65
2022/08/07 10:19:47;;;;;;;;;;;;;;;;;;5056334;28;1523;-65
2022/08/07 10:22:25;;;;;;;;;;;;;;;;;;5052060;28;1229;-64
2022/08/07 10:24:56;;;;;;;;;;;;;;;;;;5055567;28;1365;-64
2022/08/07 10:27:24;;;;;;;;;;;;;;;;;;5060640;28;1220;-64
2022/08/07 10:29:52;;;;;;;;;;;;;;;;;;5061399;28;977;-65
2022/08/07 10:32:20;;;;;;;;;;;;;;;;;;5051635;28;1542;-66
2022/08/07 10:34:54;;;;;;;;;;;;;;;;;;5049427;28;1925;-66
2022/08/07 10:37:26;;;;;;;;;;;;;;;;;;5057850;28;1283;-66
2022/08/07 10:40:03;;;;;;;;;;;;;;;;;;5061001;28;1416;-66
2022/08/07 10:42:34;;;;;;;;;;;;;;;;;;5060679;28;1404;-66
2022/08/07 10:45:05;;;;;;;;;;;;;;;;;;5060359;28;1511;-66
2022/08/07 10:47:35;;;;;;;;;;;;;;;;;;5060084;28;1482;-69
2022/08/07 10:50:04;;;;;;;;;;;;;;;;;;5059664;28;1394;-69
2022/08/07 10:52:52;;;;;;;;;;;;;;;;;;5055683;28;1575;-69
2022/08/07 10:55:23;;;;;;;;;;;;;;;;;;5033001;28;1287;-69
2022/08/07 10:58:04;;;;;;;;;;;;;;;;;;5060939;28;826;-69
2022/08/07 11:00:32;;;;;;;;;;;;;;;;;;5058477;28;1641;-69
2022/08/07 11:03:02;;;;;;;;;;;;;;;;;;5058850;28;1340;-68
2022/08/07 11:05:35;;;;;;;;;;;;;;;;;;5060274;28;1782;-68
2022/08/07 11:08:18;;;;;;;;;;;;;;;;;;5040669;28;807;-69
2022/08/07 11:10:46;;;;;;;;;;;;;;;;;;5023311;28;968;-68
2022/08/07 11:13:18;;;;;;;;;;;;;;;;;;5046420;28;1898;-69
2022/08/07 11:15:45;;;;;;;;;;;;;;;;;;5045913;28;1592;-68
2022/08/07 11:18:29;;;;;;;;;;;;;;;;;;5056208;28;1348;-69
2022/08/07 11:20:58;;;;;;;;;;;;;;;;;;5055579;28;1089;-69
2022/08/07 11:23:29;;;;;;;;;;;;;;;;;;5060622;28;834;-69
2022/08/07 11:26:06;;;;;;;;;;;;;;;;;;5060336;28;1314;-69
2022/08/07 11:28:40;;;;;;;;;;;;;;;;;;5060506;28;941;-69
2022/08/07 11:31:09;;;;;;;;;;;;;;;;;;5061392;28;1752;-69
2022/08/07 11:33:46;;;;;;;;;;;;;;;;;;5052805;28;1898;-69
2022/08/07 11:36:17;;;;;;;;;;;;;;;;;;5063248;28;1329;-69
2022/08/07 11:38:48;;;;;;;;;;;;;;;;;;5063876;28;1451;-69
2022/08/07 11:41:15;;;;;;;;;;;;;;;;;;5045881;28;1264;-69
2022/08/07 11:43:59;;;;;;;;;;;;;;;;;;5062722;28;1614;-69
2022/08/07 11:46:43;;;;;;;;;;;;;;;;;;5060078;28;1682;-69
2022/08/07 11:49:08;;;;;;;;;;;;;;;;;;5054430;28;1345;-69
2022/08/07 11:51:55;;;;;;;;;;;;;;;;;;5063699;28;1182;-69
2022/08/07 11:54:23;;;;;;;;;;;;;;;;;;5063258;28;1902;-69
2022/08/07 11:56:48;;;;;;;;;;;;;;;;;;5062478;28;1653;-69
2022/08/07 11:59:17;;;;;;;;;;;;;;;;;;5054117;28;1595;-69
2022/08/07 12:01:55;;;;;;;;;;;;;;;;;;5060818;28;1672;-68
2022/08/07 12:04:41;;;;;;;;;;;;;;;;;;5060724;28;1305;-68
2022/08/07 12:07:22;;;;;;;;;;;;;;;;;;5054913;28;1077;-69
2022/08/07 12:10:14;;;;;;;;;;;;;;;;;;5062598;28;1585;-68
2022/08/07 12:12:41;;;;;;;;;;;;;;;;;;5053905;28;1590;-69
2022/08/07 12:15:28;;;;;;;;;;;;;;;;;;5062190;28;1971;-68
2022/08/07 12:18:00;;;;;;;;;;;;;;;;;;5049097;28;1070;-68
2022/08/07 12:20:33;;;;;;;;;;;;;;;;;;5054033;28;1650;-68
2022/08/07 12:23:01;;;;;;;;;;;;;;;;;;5063205;28;1148;-68
2022/08/07 12:25:51;;;;;;;;;;;;;;;;;;5062826;28;1277;-68
2022/08/07 12:28:21;;;;;;;;;;;;;;;;;;5061680;28;1157;-69
2022/08/07 12:30:49;;;;;;;;;;;;;;;;;;5062231;28;1597;-69
2022/08/07 12:33:17;;;;;;;;;;;;;;;;;;5062715;28;1893;-69
2022/08/07 12:35:44;;;;;;;;;;;;;;;;;;5053837;28;1411;-69
2022/08/07 12:38:11;;;;;;;;;;;;;;;;;;5060364;28;1408;-69
2022/08/07 12:40:39;;;;;;;;;;;;;;;;;;5057133;28;1649;-68
2022/08/07 12:43:06;;;;;;;;;;;;;;;;;;5062338;28;1133;-69
2022/08/07 12:46:01;;;;;;;;;;;;;;;;;;5052326;28;1587;-69
2022/08/07 12:48:31;;;;;;;;;;;;;;;;;;4980307;28;1234;-68
2022/08/07 12:51:03;;;;;;;;;;;;;;;;;;5054306;28;1185;-69
2022/08/07 12:53:28;;;;;;;;;;;;;;;;;;5042451;28;1901;-68
2022/08/07 12:56:02;;;;;;;;;;;;;;;;;;5042784;28;1468;-68
2022/08/07 12:58:29;;;;;;;;;;;;;;;;;;5052521;28;1311;-68
2022/08/07 13:01:11;;;;;;;;;;;;;;;;;;5060219;28;1264;-68
2022/08/07 13:03:55;;;;;;;;;;;;;;;;;;5056119;28;1126;-68
2022/08/07 13:06:39;;;;;;;;;;;;;;;;;;5057699;28;1603;-69
2022/08/07 13:09:20;;;;;;;;;;;;;;;;;;5052912;28;1558;-68
2022/08/07 13:12:20;;;;;;;;;;;;;;;;;;5055035;28;1478;-68
2022/08/07 13:14:57;;;;;;;;;;;;;;;;;;5001535;28;1977;-69
2022/08/07 13:17:26;;;;;;;;;;;;;;;;;;5042852;28;1588;-68
2022/08/07 13:20:08;;;;;;;;;;;;;;;;;;5059878;28;1411;-68
2022/08/07 13:22:40;;;;;;;;;;;;;;;;;;5054739;28;1137;-68
2022/08/07 13:25:08;;;;;;;;;;;;;;;;;;5061460;28;1400;-68
2022/08/07 13:27:36;;;;;;;;;;;;;;;;;;5061854;28;997;-68
2022/08/07 13:30:05;;;;;;;;;;;;;;;;;;5060856;28;1618;-68
2022/08/07 13:32:46;;;;;;;;;;;;;;;;;;5044998;28;1878;-68
2022/08/07 13:35:22;;;;;;;;;;;;;;;;;;5058628;28;1980;-68
2022/08/07 13:37:47;;;;;;;;;;;;;;;;;;5057215;28;1156;-68
2022/08/07 13:40:30;;;;;;;;;;;;;;;;;;5061790;28;877;-68
2022/08/07 13:42:57;;;;;;;;;;;;;;;;;;5061406;28;1598;-68
2022/08/07 13:45:24;;;;;;;;;;;;;;;;;;5060417;28;1280;-68
2022/08/07 13:47:51;;;;;;;;;;;;;;;;;;5047885;28;1459;-68
2022/08/07 13:50:18;;;;;;;;;;;;;;;;;;5058443;28;1388;-68
2022/08/07 13:52:43;;;;;;;;;;;;;;;;;;5043186;28;1495;-68
2022/08/07 13:55:11;;;;;;;;;;;;;;;;;;5060865;28;1959;-68
2022/08/07 13:57:37;;;;;;;;;;;;;;;;;;5060149;28;1356;-69
2022/08/07 14:00:05;;;;;;;;;;;;;;;;;;5060842;28;1317;-69
2022/08/07 14:02:32;;;;;;;;;;;;;;;;;;5060242;28;1281;-65
2022/08/07 14:05:00;;;;;;;;;;;;;;;;;;5058252;28;1364;-65
2022/08/07 14:07:32;;;;;;;;;;;;;;;;;;5060655;28;1475;-65
2022/08/07 14:09:59;;;;;;;;;;;;;;;;;;5060590;28;1462;-65
2022/08/07 14:12:31;;;;;;;;;;;;;;;;;;5058535;28;1455;-65
2022/08/07 14:15:01;;;;;;;;;;;;;;;;;;5026159;28;1902;-66
2022/08/07 14:17:28;;;;;;;;;;;;;;;;;;5061405;28;2073;-65
2022/08/07 14:19:59;;;;;;;;;;;;;;;;;;5043245;28;1508;-65
2022/08/07 14:22:27;;;;;;;;;;;;;;;;;;5060496;28;1224;-65
2022/08/07 14:24:55;;;;;;;;;;;;;;;;;;5060878;28;1436;-65
2022/08/07 14:27:27;;;;;;;;;;;;;;;;;;5060055;28;1573;-65
2022/08/07 14:29:54;;;;;;;;;;;;;;;;;;5053420;28;1409;-65
2022/08/07 14:32:20;;;;;;;;;;;;;;;;;;5043136;28;1538;-66
2022/08/07 14:34:46;;;;;;;;;;;;;;;;;;5060212;28;1907;-65
2022/08/07 14:37:13;;;;;;;;;;;;;;;;;;5061193;28;984;-65
2022/08/07 14:39:40;;;;;;;;;;;;;;;;;;5059967;28;918;-66
2022/08/07 14:42:08;;;;;;;;;;;;;;;;;;5060947;28;1566;-65
2022/08/07 14:44:34;;;;;;;;;;;;;;;;;;5060614;28;1274;-66
2022/08/07 14:47:00;;;;;;;;;;;;;;;;;;5060590;28;1414;-65
2022/08/07 14:49:29;;;;;;;;;;;;;;;;;;5060658;28;1386;-65
2022/08/07 14:51:56;;;;;;;;;;;;;;;;;;5060615;28;744;-66
2022/08/07 14:54:22;;;;;;;;;;;;;;;;;;5061047;28;1890;-65
2022/08/07 14:56:49;;;;;;;;;;;;;;;;;;5059744;28;1559;-65
2022/08/07 14:59:19;;;;;;;;;;;;;;;;;;5060612;28;1503;-66
2022/08/07 15:01:44;;;;;;;;;;;;;;;;;;5060628;28;874;-64
2022/08/07 15:04:10;;;;;;;;;;;;;;;;;;5060653;28;1538;-65
2022/08/07 15:06:36;;;;;;;;;;;;;;;;;;5063908;28;1451;-67
2022/08/07 15:09:09;;;;;;;;;;;;;;;;;;5055203;28;1613;-65
2022/08/07 15:11:41;;;;;;;;;;;;;;;;;;5064347;28;1530;-65
2022/08/07 15:14:08;;;;;;;;;;;;;;;;;;5063198;28;1993;-65
2022/08/07 15:16:39;;;;;;;;;;;;;;;;;;5062448;28;1547;-65
2022/08/07 15:19:09;;;;;;;;;;;;;;;;;;5062161;28;1426;-65
2022/08/07 15:21:36;;;;;;;;;;;;;;;;;;5062739;28;1056;-65
2022/08/07 15:24:04;;;;;;;;;;;;;;;;;;5064222;28;1463;-65
2022/08/07 15:26:36;;;;;;;;;;;;;;;;;;5063150;28;1491;-65
2022/08/07 15:29:03;;;;;;;;;;;;;;;;;;5064106;28;965;-65
2022/08/07 15:31:31;;;;;;;;;;;;;;;;;;5062826;28;1352;-65
2022/08/07 15:33:58;;;;;;;;;;;;;;;;;;5064068;28;1897;-65
2022/08/07 15:36:25;;;;;;;;;;;;;;;;;;5063868;28;1195;-66
2022/08/07 15:38:51;;;;;;;;;;;;;;;;;;5063662;28;810;-65
2022/08/07 15:41:16;;;;;;;;;;;;;;;;;;5058839;28;1448;-65
2022/08/07 15:43:43;;;;;;;;;;;;;;;;;;5063133;28;1293;-65
2022/08/07 15:46:19;;;;;;;;;;;;;;;;;;5063406;28;1483;-65
2022/08/07 15:48:45;;;;;;;;;;;;;;;;;;5062594;28;1348;-66
2022/08/07 15:51:12;;;;;;;;;;;;;;;;;;5063564;28;1539;-65
2022/08/07 15:53:39;;;;;;;;;;;;;;;;;;5047493;28;2013;-65
2022/08/07 15:56:08;;;;;;;;;;;;;;;;;;5062594;28;1353;-65
2022/08/07 15:58:43;;;;;;;;;;;;;;;;;;5063021;28;1309;-65
2022/08/07 16:01:14;;;;;;;;;;;;;;;;;;5063253;28;929;-64
2022/08/07 16:03:42;;;;;;;;;;;;;;;;;;5063585;28;767;-66
2022/08/07 16:06:07;;;;;;;;;;;;;;;;;;5052125;28;1537;-65
2022/08/07 16:08:34;;;;;;;;;;;;;;;;;;5049469;28;1231;-65
2022/08/07 16:11:09;;;;;;;;;;;;;;;;;;5053576;28;1275;-65
2022/08/07 16:13:50;;;;;;;;;;;;;;;;;;5055738;28;1905;-65
2022/08/07 16:16:15;;;;;;;;;;;;;;;;;;5052092;28;1338;-66
2022/08/07 16:18:53;;;;;;;;;;;;;;;;;;5053957;28;1327;-65
2022/08/07 16:21:27;;;;;;;;;;;;;;;;;;5051706;28;1426;-66
2022/08/07 16:24:01;;;;;;;;;;;;;;;;;;5048378;28;1189;-65
2022/08/07 16:26:33;;;;;;;;;;;;;;;;;;5051400;28;1330;-65
2022/08/07 16:29:02;;;;;;;;;;;;;;;;;;5048907;28;1268;-66
2022/08/07 16:31:27;;;;;;;;;;;;;;;;;;5052503;28;1609;-65
2022/08/07 16:33:57;;;;;;;;;;;;;;;;;;5031863;28;1890;-65
2022/08/07 16:36:39;;;;;;;;;;;;;;;;;;5047636;28;1282;-65
2022/08/07 16:39:16;;;;;;;;;;;;;;;;;;5050969;28;1273;-65
2022/08/07 16:41:57;;;;;;;;;;;;;;;;;;5054114;28;1196;-65
2022/08/07 16:44:41;;;;;;;;;;;;;;;;;;5055487;28;1386;-65
2022/08/07 16:47:25;;;;;;;;;;;;;;;;;;5051907;28;1264;-65
2022/08/07 16:50:12;;;;;;;;;;;;;;;;;;5037561;28;1260;-65
2022/08/07 16:52:43;;;;;;;;;;;;;;;;;;5049312;28;1227;-65
2022/08/07 16:55:24;;;;;;;;;;;;;;;;;;5054419;28;1951;-66
2022/08/07 16:57:58;;;;;;;;;;;;;;;;;;5052367;28;1260;-66
2022/08/07 17:00:26;;;;;;;;;;;;;;;;;;5055874;28;1207;-66
2022/08/07 17:02:59;;;;;;;;;;;;;;;;;;5055036;28;1350;-66
2022/08/07 17:05:25;;;;;;;;;;;;;;;;;;5047116;28;1330;-66
2022/08/07 17:07:50;;;;;;;;;;;;;;;;;;5049682;28;1357;-65
2022/08/07 17:10:21;;;;;;;;;;;;;;;;;;5048059;28;1236;-66
2022/08/07 17:12:53;;;;;;;;;;;;;;;;;;5053731;28;1281;-64
2022/08/07 17:15:24;;;;;;;;;;;;;;;;;;5060740;28;1883;-64
2022/08/07 17:17:49;;;;;;;;;;;;;;;;;;5050045;28;1438;-64
2022/08/07 17:20:27;;;;;;;;;;;;;;;;;;5059554;28;1622;-64
2022/08/07 17:22:58;;;;;;;;;;;;;;;;;;5060747;28;1428;-64
2022/08/07 17:25:30;;;;;;;;;;;;;;;;;;5061449;28;1573;-64
2022/08/07 17:27:57;;;;;;;;;;;;;;;;;;5061249;28;1479;-64